Time,TemperatureF,DewpointF,PressureIn,WindDirection,WindDirectionDegrees,WindSpeedMPH,WindSpeedGustMPH,Humidity,HourlyPrecipIn,Conditions,Clouds,dailyrainin,SoftwareType,DateUTC
2013-04-27 00:30:00,55.0,-99.9,-100.00,South,174,5.0,7.0,-999,0.00,,,0.00,,2013-04-27 05:30:00,
2013-04-27 00:32:00,56.0,-99.9,-100.00,SSE,166,4.0,6.0,-999,0.00,,,0.00,,2013-04-27 05:32:00,
2013-04-27 00:42:00,56.0,-99.9,-100.00,SSE,166,4.0,6.0,-999,0.00,,,0.00,,2013-04-27 05:42:00,
2013-04-27 00:52:00,56.0,-99.9,-100.00,SSE,166,4.0,6.0,-999,0.00,,,0.00,,2013-04-27 05:52:00,
2013-04-27 01:02:00,55.0,-99.9,-100.00,South,174,5.0,7.0,-999,0.00,,,0.00,,2013-04-27 06:02:00,
2013-04-27 01:12:00,55.0,-99.9,-100.00,South,174,5.0,7.0,-999,0.00,,,0.00,,2013-04-27 06:12:00,
2013-04-27 01:22:00,55.0,-99.9,-100.00,South,174,5.0,7.0,-999,0.00,,,0.00,,2013-04-27 06:22:00,
2013-04-27 02:02:00,53.0,-99.9,-100.00,South,184,2.0,4.0,-999,0.00,,,0.00,,2013-04-27 07:02:00,
2013-04-27 02:11:00,53.0,-99.9,-100.00,South,184,2.0,4.0,-999,0.00,,,0.00,,2013-04-27 07:11:00,
2013-04-27 02:22:00,53.0,-99.9,-100.00,South,184,2.0,4.0,-999,0.00,,,0.00,,2013-04-27 07:22:00,
2013-04-27 02:32:00,53.0,-99.9,-100.00,South,187,2.0,4.0,-999,0.00,,,0.00,,2013-04-27 07:32:00,
2013-04-27 02:42:00,53.0,-99.9,-100.00,South,187,2.0,4.0,-999,0.00,,,0.00,,2013-04-27 07:42:00,
2013-04-27 02:52:00,53.0,-99.9,-100.00,South,187,2.0,4.0,-999,0.00,,,0.00,,2013-04-27 07:52:00,
2013-04-27 03:02:00,52.0,-99.9,-100.00,South,180,3.0,5.0,-999,0.00,,,0.00,,2013-04-27 08:02:00,
2013-04-27 03:12:00,52.0,-99.9,-100.00,South,180,3.0,5.0,-999,0.00,,,0.00,,2013-04-27 08:12:00,
2013-04-27 03:22:00,52.0,-99.9,-100.00,South,180,3.0,5.0,-999,0.00,,,0.00,,2013-04-27 08:22:00,
2013-04-27 03:33:00,51.0,-99.9,-100.00,South,170,2.0,3.0,-999,0.00,,,0.00,,2013-04-27 08:33:00,
2013-04-27 03:42:00,51.0,-99.9,-100.00,South,170,2.0,3.0,-999,0.00,,,0.00,,2013-04-27 08:42:00,
2013-04-27 03:52:00,51.0,-99.9,-100.00,South,170,2.0,3.0,-999,0.00,,,0.00,,2013-04-27 08:52:00,
2013-04-27 04:01:00,50.0,-99.9,-100.00,SSE,168,2.0,4.0,-999,0.00,,,0.00,,2013-04-27 09:01:00,
2013-04-27 04:11:00,50.0,-99.9,-100.00,SSE,168,2.0,4.0,-999,0.00,,,0.00,,2013-04-27 09:11:00,
2013-04-27 04:22:00,50.0,-99.9,-100.00,SSE,168,2.0,4.0,-999,0.00,,,0.00,,2013-04-27 09:22:00,
2013-04-27 04:33:00,50.0,-99.9,-100.00,SW,219,2.0,3.0,-999,0.00,,,0.00,,2013-04-27 09:33:00,
2013-04-27 04:43:00,50.0,-99.9,-100.00,SW,219,2.0,3.0,-999,0.00,,,0.00,,2013-04-27 09:43:00,
2013-04-27 04:53:00,50.0,-99.9,-100.00,SW,219,2.0,3.0,-999,0.00,,,0.00,,2013-04-27 09:53:00,
2013-04-27 05:03:00,49.0,-99.9,-100.00,SW,223,0.0,0.0,-999,0.00,,,0.00,,2013-04-27 10:03:00,
2013-04-27 05:12:00,49.0,-99.9,-100.00,SW,223,0.0,0.0,-999,0.00,,,0.00,,2013-04-27 10:12:00,
2013-04-27 05:23:00,49.0,-99.9,-100.00,SW,223,0.0,0.0,-999,0.00,,,0.00,,2013-04-27 10:23:00,
2013-04-27 05:33:00,49.0,-99.9,-100.00,SE,126,1.0,2.0,-999,0.00,,,0.00,,2013-04-27 10:33:00,
2013-04-27 05:42:00,49.0,-99.9,-100.00,SE,126,1.0,2.0,-999,0.00,,,0.00,,2013-04-27 10:42:00,
2013-04-27 05:53:00,49.0,-99.9,-100.00,SE,126,1.0,2.0,-999,0.00,,,0.00,,2013-04-27 10:53:00,
2013-04-27 06:03:00,47.0,-99.9,-100.00,East,87,2.0,2.0,-999,0.00,,,0.00,,2013-04-27 11:03:00,
2013-04-27 06:12:00,47.0,-99.9,-100.00,East,87,2.0,2.0,-999,0.00,,,0.00,,2013-04-27 11:12:00,
2013-04-27 06:22:00,47.0,-99.9,-100.00,East,87,2.0,2.0,-999,0.00,,,0.00,,2013-04-27 11:22:00,
2013-04-27 06:32:00,47.0,-99.9,-100.00,East,95,1.0,3.0,-999,0.00,,,0.00,,2013-04-27 11:32:00,
2013-04-27 06:42:00,47.0,-99.9,-100.00,East,95,1.0,3.0,-999,0.00,,,0.00,,2013-04-27 11:42:00,
2013-04-27 06:52:00,47.0,-99.9,-100.00,East,95,1.0,3.0,-999,0.00,,,0.00,,2013-04-27 11:52:00,
2013-04-27 07:02:00,47.0,-99.9,-100.00,SE,138,1.0,2.0,-999,0.00,,,0.00,,2013-04-27 12:02:00,
2013-04-27 07:12:00,47.0,-99.9,-100.00,SE,138,1.0,2.0,-999,0.00,,,0.00,,2013-04-27 12:12:00,
2013-04-27 07:22:00,47.0,-99.9,-100.00,SE,138,1.0,2.0,-999,0.00,,,0.00,,2013-04-27 12:22:00,
2013-04-27 07:32:00,48.0,-99.9,-100.00,ENE,69,1.0,2.0,-999,0.00,,,0.00,,2013-04-27 12:32:00,
2013-04-27 07:42:00,48.0,-99.9,-100.00,ENE,69,1.0,2.0,-999,0.00,,,0.00,,2013-04-27 12:42:00,
2013-04-27 07:52:00,48.0,-99.9,-100.00,ENE,69,1.0,2.0,-999,0.00,,,0.00,,2013-04-27 12:52:00,
2013-04-27 08:02:00,51.0,-99.9,-100.00,South,175,0.0,2.0,-999,0.00,,,0.00,,2013-04-27 13:02:00,
2013-04-27 08:12:00,51.0,-99.9,-100.00,South,175,0.0,2.0,-999,0.00,,,0.00,,2013-04-27 13:12:00,
2013-04-27 08:22:00,51.0,-99.9,-100.00,South,175,0.0,2.0,-999,0.00,,,0.00,,2013-04-27 13:22:00,
2013-04-27 08:32:00,53.0,-99.9,-100.00,ESE,112,1.0,2.0,-999,0.00,,,0.00,,2013-04-27 13:32:00,
2013-04-27 08:42:00,53.0,-99.9,-100.00,ESE,112,1.0,2.0,-999,0.00,,,0.00,,2013-04-27 13:42:00,
2013-04-27 08:52:00,53.0,-99.9,-100.00,ESE,112,1.0,2.0,-999,0.00,,,0.00,,2013-04-27 13:52:00,
2013-04-27 09:02:00,55.0,-99.9,-100.00,East,100,1.0,3.0,-999,0.00,,,0.00,,2013-04-27 14:02:00,
2013-04-27 09:12:00,55.0,-99.9,-100.00,East,100,1.0,3.0,-999,0.00,,,0.00,,2013-04-27 14:12:00,
2013-04-27 09:22:00,55.0,-99.9,-100.00,East,100,1.0,3.0,-999,0.00,,,0.00,,2013-04-27 14:22:00,
2013-04-27 09:32:00,54.0,-99.9,-100.00,NNW,340,2.0,4.0,-999,0.00,,,0.00,,2013-04-27 14:32:00,
2013-04-27 09:42:00,54.0,-99.9,-100.00,NNW,340,2.0,4.0,-999,0.00,,,0.00,,2013-04-27 14:42:00,
2013-04-27 09:52:00,54.0,-99.9,-100.00,NNW,340,2.0,4.0,-999,0.00,,,0.00,,2013-04-27 14:52:00,
2013-04-27 10:02:00,56.0,-99.9,-100.00,North,9,2.0,3.0,-999,0.00,,,0.00,,2013-04-27 15:02:00,
2013-04-27 10:12:00,56.0,-99.9,-100.00,North,9,2.0,3.0,-999,0.00,,,0.00,,2013-04-27 15:12:00,
2013-04-27 10:22:00,56.0,-99.9,-100.00,North,9,2.0,3.0,-999,0.00,,,0.00,,2013-04-27 15:22:00,
2013-04-27 10:33:00,58.0,-99.9,-100.00,NE,49,2.0,7.0,-999,0.00,,,0.00,,2013-04-27 15:33:00,
2013-04-27 10:43:00,58.0,-99.9,-100.00,NE,49,2.0,7.0,-999,0.00,,,0.00,,2013-04-27 15:43:00,
2013-04-27 10:53:00,58.0,-99.9,-100.00,NE,49,2.0,7.0,-999,0.00,,,0.00,,2013-04-27 15:53:00,
2013-04-27 11:03:00,61.0,-99.9,-100.00,ESE,120,5.0,10.0,-999,0.00,,,0.00,,2013-04-27 16:03:00,
2013-04-27 11:13:00,61.0,-99.9,-100.00,ESE,120,5.0,10.0,-999,0.00,,,0.00,,2013-04-27 16:13:00,
2013-04-27 11:23:00,61.0,-99.9,-100.00,ESE,120,5.0,10.0,-999,0.00,,,0.00,,2013-04-27 16:23:00,
2013-04-27 11:33:00,64.0,-99.9,-100.00,SSE,162,5.0,13.0,-999,0.00,,,0.00,,2013-04-27 16:33:00,
2013-04-27 11:42:00,64.0,-99.9,-100.00,SSE,162,5.0,13.0,-999,0.00,,,0.00,,2013-04-27 16:42:00,
2013-04-27 11:53:00,64.0,-99.9,-100.00,SSE,162,5.0,13.0,-999,0.00,,,0.00,,2013-04-27 16:53:00,
2013-04-27 12:02:00,64.0,-99.9,-100.00,SE,125,7.0,12.0,-999,0.00,,,0.00,,2013-04-27 17:02:00,
2013-04-27 12:12:00,64.0,-99.9,-100.00,SE,125,7.0,12.0,-999,0.00,,,0.00,,2013-04-27 17:12:00,
2013-04-27 12:22:00,64.0,-99.9,-100.00,SE,125,7.0,12.0,-999,0.00,,,0.00,,2013-04-27 17:22:00,
2013-04-27 12:32:00,65.0,-99.9,-100.00,SE,128,7.0,11.0,-999,0.00,,,0.00,,2013-04-27 17:32:00,
2013-04-27 12:42:00,65.0,-99.9,-100.00,SE,128,7.0,11.0,-999,0.00,,,0.00,,2013-04-27 17:42:00,
2013-04-27 12:53:00,65.0,-99.9,-100.00,SE,128,7.0,11.0,-999,0.00,,,0.00,,2013-04-27 17:53:00,
2013-04-27 13:02:00,67.0,-99.9,-100.00,SE,139,5.0,11.0,-999,0.00,,,0.00,,2013-04-27 18:02:00,
2013-04-27 13:12:00,67.0,-99.9,-100.00,SE,139,5.0,11.0,-999,0.00,,,0.00,,2013-04-27 18:12:00,
2013-04-27 13:22:00,67.0,-99.9,-100.00,SE,139,5.0,11.0,-999,0.00,,,0.00,,2013-04-27 18:22:00,
2013-04-27 13:32:00,68.0,-99.9,-100.00,SSE,150,3.0,6.0,-999,0.00,,,0.00,,2013-04-27 18:32:00,
2013-04-27 13:42:00,68.0,-99.9,-100.00,SSE,150,3.0,6.0,-999,0.00,,,0.00,,2013-04-27 18:42:00,
2013-04-27 13:52:00,68.0,-99.9,-100.00,SSE,150,3.0,6.0,-999,0.00,,,0.00,,2013-04-27 18:52:00,
2013-04-27 14:02:00,65.0,-99.9,-100.00,SE,139,6.0,11.0,-999,0.00,,,0.00,,2013-04-27 19:02:00,
2013-04-27 14:11:00,65.0,-99.9,-100.00,SE,139,6.0,11.0,-999,0.00,,,0.00,,2013-04-27 19:11:00,
2013-04-27 14:22:00,65.0,-99.9,-100.00,SE,139,6.0,11.0,-999,0.00,,,0.00,,2013-04-27 19:22:00,
2013-04-27 14:32:00,65.0,-99.9,-100.00,SSE,162,5.0,7.0,-999,0.00,,,0.00,,2013-04-27 19:32:00,
2013-04-27 14:42:00,65.0,-99.9,-100.00,SSE,162,5.0,7.0,-999,0.00,,,0.00,,2013-04-27 19:42:00,
2013-04-27 14:53:00,65.0,-99.9,-100.00,SSE,162,5.0,7.0,-999,0.00,,,0.00,,2013-04-27 19:53:00,
2013-04-27 15:02:00,63.0,-99.9,-100.00,SSE,149,7.0,12.0,-999,0.00,,,0.00,,2013-04-27 20:02:00,
2013-04-27 15:11:00,63.0,-99.9,-100.00,SSE,149,7.0,12.0,-999,0.00,,,0.00,,2013-04-27 20:11:00,
2013-04-27 15:22:00,63.0,-99.9,-100.00,SSE,149,7.0,12.0,-999,0.00,,,0.00,,2013-04-27 20:22:00,
2013-04-27 15:32:00,64.0,-99.9,-100.00,SE,136,4.0,7.0,-999,0.00,,,0.00,,2013-04-27 20:32:00,
2013-04-27 15:42:00,64.0,-99.9,-100.00,SE,136,4.0,7.0,-999,0.00,,,0.00,,2013-04-27 20:42:00,
2013-04-27 15:52:00,64.0,-99.9,-100.00,SE,136,4.0,7.0,-999,0.00,,,0.00,,2013-04-27 20:52:00,
2013-04-27 16:02:00,64.0,-99.9,-100.00,SE,139,5.0,7.0,-999,0.00,,,0.00,,2013-04-27 21:02:00,
2013-04-27 16:12:00,64.0,-99.9,-100.00,SE,139,5.0,7.0,-999,0.00,,,0.00,,2013-04-27 21:12:00,
2013-04-27 16:22:00,64.0,-99.9,-100.00,SE,139,5.0,7.0,-999,0.00,,,0.00,,2013-04-27 21:22:00,
2013-04-27 16:33:00,63.0,-99.9,-100.00,East,87,5.0,11.0,-999,0.00,,,0.00,,2013-04-27 21:33:00,
2013-04-27 16:43:00,63.0,-99.9,-100.00,East,87,5.0,11.0,-999,0.00,,,0.00,,2013-04-27 21:43:00,
2013-04-27 16:53:00,63.0,-99.9,-100.00,East,87,5.0,11.0,-999,0.00,,,0.00,,2013-04-27 21:53:00,
2013-04-27 17:03:00,64.0,-99.9,-100.00,East,98,5.0,9.0,-999,0.00,,,0.00,,2013-04-27 22:03:00,
2013-04-27 17:13:00,64.0,-99.9,-100.00,East,98,5.0,9.0,-999,0.00,,,0.00,,2013-04-27 22:13:00,
2013-04-27 17:23:00,64.0,-99.9,-100.00,East,98,5.0,9.0,-999,0.00,,,0.00,,2013-04-27 22:23:00,
2013-04-27 17:32:00,63.0,-99.9,-100.00,East,94,6.0,10.0,-999,0.00,,,0.00,,2013-04-27 22:32:00,
2013-04-27 17:42:00,63.0,-99.9,-100.00,East,94,6.0,10.0,-999,0.00,,,0.00,,2013-04-27 22:42:00,
2013-04-27 17:53:00,63.0,-99.9,-100.00,East,94,6.0,10.0,-999,0.00,,,0.00,,2013-04-27 22:53:00,
2013-04-27 18:03:00,63.0,-99.9,-100.00,East,82,6.0,10.0,-999,0.00,,,0.00,,2013-04-27 23:03:00,
2013-04-27 18:12:00,63.0,-99.9,-100.00,East,82,6.0,10.0,-999,0.00,,,0.00,,2013-04-27 23:12:00,
2013-04-27 18:22:00,63.0,-99.9,-100.00,East,82,6.0,10.0,-999,0.00,,,0.00,,2013-04-27 23:22:00,
2013-04-27 18:30:00,62.0,-99.9,-100.00,East,95,4.0,6.0,-999,0.00,,,0.00,,2013-04-27 23:30:00,
2013-04-27 18:32:00,63.0,-99.9,-100.00,ENE,76,5.0,7.0,-999,0.00,,,0.00,,2013-04-27 23:32:00,
2013-04-27 18:43:00,63.0,-99.9,-100.00,ENE,76,5.0,7.0,-999,0.00,,,0.00,,2013-04-27 23:43:00,
2013-04-27 18:53:00,63.0,-99.9,-100.00,ENE,76,5.0,7.0,-999,0.00,,,0.00,,2013-04-27 23:53:00,
2013-04-27 19:02:00,62.0,-99.9,-100.00,East,95,4.0,6.0,-999,0.00,,,0.00,,2013-04-28 00:02:00,
2013-04-27 19:12:00,62.0,-99.9,-100.00,East,95,4.0,6.0,-999,0.00,,,0.00,,2013-04-28 00:12:00,
2013-04-27 19:22:00,62.0,-99.9,-100.00,East,95,4.0,6.0,-999,0.00,,,0.00,,2013-04-28 00:22:00,
2013-04-27 20:02:00,62.0,-99.9,-100.00,ESE,123,2.0,3.0,-999,0.00,,,0.00,,2013-04-28 01:02:00,
2013-04-27 20:12:00,62.0,-99.9,-100.00,ESE,123,2.0,3.0,-999,0.00,,,0.00,,2013-04-28 01:12:00,
2013-04-27 20:22:00,62.0,-99.9,-100.00,ESE,123,2.0,3.0,-999,0.00,,,0.00,,2013-04-28 01:22:00,
2013-04-27 20:32:00,60.0,-99.9,-100.00,SSW,213,0.0,0.0,-999,0.00,,,0.00,,2013-04-28 01:32:00,
2013-04-27 20:42:00,60.0,-99.9,-100.00,SSW,213,0.0,0.0,-999,0.00,,,0.00,,2013-04-28 01:42:00,
2013-04-27 20:52:00,60.0,-99.9,-100.00,SSW,213,0.0,0.0,-999,0.00,,,0.00,,2013-04-28 01:52:00,
2013-04-27 21:02:00,59.0,-99.9,-100.00,South,180,1.0,2.0,-999,0.00,,,0.00,,2013-04-28 02:02:00,
2013-04-27 21:12:00,59.0,-99.9,-100.00,South,180,1.0,2.0,-999,0.00,,,0.00,,2013-04-28 02:12:00,
2013-04-27 21:22:00,59.0,-99.9,-100.00,South,180,1.0,2.0,-999,0.00,,,0.00,,2013-04-28 02:22:00,
2013-04-27 21:32:00,57.0,-99.9,-100.00,SSW,194,5.0,7.0,-999,0.00,,,0.00,,2013-04-28 02:32:00,
2013-04-27 21:42:00,57.0,-99.9,-100.00,SSW,194,5.0,7.0,-999,0.00,,,0.00,,2013-04-28 02:42:00,
2013-04-27 21:52:00,57.0,-99.9,-100.00,SSW,194,5.0,7.0,-999,0.00,,,0.00,,2013-04-28 02:52:00,
2013-04-27 22:02:00,56.0,-99.9,-100.00,SSW,204,3.0,5.0,-999,0.00,,,0.00,,2013-04-28 03:02:00,
2013-04-27 22:12:00,56.0,-99.9,-100.00,SSW,204,3.0,5.0,-999,0.00,,,0.00,,2013-04-28 03:12:00,
2013-04-27 22:22:00,56.0,-99.9,-100.00,SSW,204,3.0,5.0,-999,0.00,,,0.00,,2013-04-28 03:22:00,
2013-04-27 22:33:00,55.0,-99.9,-100.00,SW,218,1.0,2.0,-999,0.00,,,0.00,,2013-04-28 03:33:00,
2013-04-27 22:43:00,55.0,-99.9,-100.00,SW,218,1.0,2.0,-999,0.00,,,0.00,,2013-04-28 03:43:00,
2013-04-27 22:53:00,55.0,-99.9,-100.00,SW,218,1.0,2.0,-999,0.00,,,0.00,,2013-04-28 03:53:00,
2013-04-27 23:03:00,56.0,-99.9,-100.00,South,187,1.0,2.0,-999,0.00,,,0.00,,2013-04-28 04:03:00,
2013-04-27 23:13:00,56.0,-99.9,-100.00,South,187,1.0,2.0,-999,0.00,,,0.00,,2013-04-28 04:13:00,
2013-04-27 23:23:00,56.0,-99.9,-100.00,South,187,1.0,2.0,-999,0.00,,,0.00,,2013-04-28 04:23:00,
2013-04-27 23:33:00,55.0,-99.9,-100.00,WSW,255,1.0,1.0,-999,0.00,,,0.00,,2013-04-28 04:33:00,
2013-04-27 23:43:00,55.0,-99.9,-100.00,WSW,255,1.0,1.0,-999,0.00,,,0.00,,2013-04-28 04:43:00,
2013-04-27 23:53:00,55.0,-99.9,-100.00,WSW,255,1.0,1.0,-999,0.00,,,0.00,,2013-04-28 04:53:00,